Sawyer International Airport Marquette US
ICAO: KSAW
IATA: SAW
Category: Medium
Scheduled Services: No

Elevation: 1221 ft
TransAlt. 18000 ft.

Airport Communications:
AWOS 3:118.375
MINNEAPOLIS CNTR:119.1
CTAF:119.975
GND:121.65
GREEN BAY RDO:123.6
TWR:119.975
UNICOM:122.7

KSAW Zoom In..

If you have problems with the map follow the link
https://www.worldairports.se/pages/airport.php?
ICAO=KSAW

Runways:

(A) RW 01 length 12366 ft width 150 ft
ILS 110.10 / hdg 13

(B) RW 19 length 12366 ft width 150 ft
---- / hdg 193

Location; KSAW
Day. 14 / Time. 20.45 Zulu
* Altimeter: 30.03
* Temperature: 05° c. 41°f.
* Wind from: 250° Speed 09 kn.
Dewpoint: -04° c.
Visibility: 10 Statute Miles.
Clouds: Clear (manual report).

KSAW 142045Z 25009KT 10SM SKC 05/M04 A3003


Wind From 250°
Speed 09 kn.

 
 
jpsmedia.com for Web Design worldairports.se 2018   terms of use